Time;durP1;ratioP1;P1;durP2;ratioP2;P2;SDS_P1;SDS_P2;PMS_P1;PMS_P2;Temp;Humidity;BMP_temperature;BMP_pressure;BME280_temperature;BME280_humidity;BME280_pressure;Samples;Min_cycle;Max_cycle;Signal;HPM_P1;HPM_P2
2022/03/08 00:00:25;;;;;;;18.00;9.73;;;;;;;-0.50;67.53;102412.56;4935419;29;20051;-80
2022/03/08 00:02:51;;;;;;;18.38;9.05;;;;;;;-0.88;67.44;102350.56;4935233;29;20031;-77
2022/03/08 00:05:16;;;;;;;16.15;9.90;;;;;;;-0.50;67.21;102418.50;4935445;28;20038;-77
2022/03/08 00:07:45;;;;;;;15.40;10.15;;;;;;;-0.49;67.26;102406.66;4935433;28;20028;-77
2022/03/08 00:10:11;;;;;;;15.25;9.70;;;;;;;-0.45;66.73;102405.84;4935258;29;20022;-77
2022/03/08 00:12:36;;;;;;;15.05;8.93;;;;;;;-0.39;66.96;102413.53;4935272;28;20437;-76
2022/03/08 00:15:07;;;;;;;15.13;9.23;;;;;;;-0.42;66.93;102409.25;4935184;29;20031;-79
2022/03/08 00:17:32;;;;;;;12.60;8.60;;;;;;;-0.56;66.88;102380.41;4935199;28;20023;-80
2022/03/08 00:19:58;;;;;;;17.92;9.40;;;;;;;-0.45;66.78;102399.09;4935149;28;20050;-77
2022/03/08 00:22:24;;;;;;;17.88;9.38;;;;;;;-0.44;66.82;102405.88;4935362;29;20038;-78
2022/03/08 00:24:49;;;;;;;13.82;9.07;;;;;;;-0.41;66.36;102397.41;4935114;28;20393;-77
2022/03/08 00:27:14;;;;;;;13.00;8.43;;;;;;;-0.57;66.41;102370.25;4935145;28;20094;-77
2022/03/08 00:29:40;;;;;;;14.70;9.02;;;;;;;-0.57;66.84;102382.94;4934925;28;20024;-77
2022/03/08 00:32:06;;;;;;;16.98;9.50;;;;;;;-0.62;66.72;102367.66;4966009;28;20020;-77
2022/03/08 00:34:31;;;;;;;14.88;8.57;;;;;;;-0.93;66.33;102323.44;4934917;28;20055;-77
2022/03/08 00:36:56;;;;;;;15.50;9.18;;;;;;;-0.52;66.42;102392.25;4934695;28;20052;-77
2022/03/08 00:39:22;;;;;;;15.50;9.75;;;;;;;-0.55;66.48;102399.00;4935186;28;20036;-79
2022/03/08 00:41:47;;;;;;;19.20;9.60;;;;;;;-0.92;66.41;102338.66;4967912;28;20477;-78
2022/03/08 00:44:13;;;;;;;18.70;10.77;;;;;;;-0.80;66.69;102360.75;4938468;29;20489;-79
2022/03/08 00:46:38;;;;;;;16.58;10.55;;;;;;;-0.68;66.89;102393.00;4938999;29;20542;-79
2022/03/08 00:49:04;;;;;;;16.52;9.70;;;;;;;-0.89;66.92;102369.13;4938575;29;20078;-77
2022/03/08 00:51:29;;;;;;;20.63;10.27;;;;;;;-0.74;66.91;102398.00;4938770;28;20066;-78
2022/03/08 00:53:55;;;;;;;17.10;9.80;;;;;;;-0.96;66.75;102369.91;4938718;29;20035;-77
2022/03/08 00:56:20;;;;;;;14.02;8.98;;;;;;;-0.80;66.99;102398.78;4938610;29;20468;-78
2022/03/08 00:58:45;;;;;;;16.98;9.93;;;;;;;-1.01;66.85;102365.63;4953185;28;20494;-77
2022/03/08 01:01:11;;;;;;;16.75;10.65;;;;;;;-0.82;66.75;102395.38;4938670;29;20155;-80
2022/03/08 01:03:36;;;;;;;16.25;9.70;;;;;;;-1.09;66.57;102347.78;4938554;29;20034;-79
2022/03/08 01:06:02;;;;;;;20.70;10.40;;;;;;;-0.77;66.72;102392.91;4938514;28;20071;-79
2022/03/08 01:08:27;;;;;;;19.15;10.90;;;;;;;-1.03;66.41;102352.09;4938583;28;20087;-78
2022/03/08 01:10:52;;;;;;;17.27;9.27;;;;;;;-0.83;66.51;102391.16;4938361;29;20024;-78
2022/03/08 01:13:18;;;;;;;16.20;9.98;;;;;;;-0.93;66.68;102369.09;4938403;28;20062;-81
2022/03/08 01:15:44;;;;;;;15.43;9.50;;;;;;;-0.98;66.28;102363.13;4938292;28;20032;-77
2022/03/08 01:18:09;;;;;;;13.90;8.85;;;;;;;-1.02;66.50;102357.16;4938218;29;20023;-77
2022/03/08 01:20:35;;;;;;;14.05;8.93;;;;;;;-0.80;66.16;102388.63;4938317;29;20031;-78
2022/03/08 01:23:00;;;;;;;12.30;8.35;;;;;;;-0.83;66.46;102386.09;4938225;29;20046;-78
2022/03/08 01:25:25;;;;;;;14.55;8.63;;;;;;;-0.93;66.41;102371.63;4938118;29;20038;-81
2022/03/08 01:27:51;;;;;;;13.95;8.75;;;;;;;-0.87;66.54;102392.81;4938058;28;20031;-78
2022/03/08 01:30:21;;;;;;;12.95;8.88;;;;;;;-0.90;66.70;102379.25;4937992;29;20023;-79
2022/03/08 01:32:46;;;;;;;14.43;8.65;;;;;;;-1.08;66.76;102348.66;4938323;29;20036;-80
2022/03/08 01:35:13;;;;;;;17.15;9.77;;;;;;;-0.94;67.08;102372.47;4937917;28;20032;-77
2022/03/08 01:37:39;;;;;;;17.77;10.32;;;;;;;-1.10;67.08;102340.19;4938120;28;20032;-77
2022/03/08 01:40:06;;;;;;;19.67;10.27;;;;;;;-0.97;66.70;102357.22;4937813;29;20028;-78
2022/03/08 01:42:32;;;;;;;18.98;9.07;;;;;;;-1.30;66.91;102302.81;4937732;29;20040;-80
2022/03/08 01:44:58;;;;;;;16.45;9.30;;;;;;;-1.20;66.89;102327.41;4937567;28;20062;-77
2022/03/08 01:47:25;;;;;;;15.77;9.50;;;;;;;-1.08;67.07;102347.00;4938020;28;20050;-77
2022/03/08 01:49:52;;;;;;;14.32;8.30;;;;;;;-1.11;67.21;102346.94;4937632;29;20035;-82
2022/03/08 01:52:20;;;;;;;13.93;9.02;;;;;;;-1.23;67.15;102334.16;4937117;29;20529;-77
2022/03/08 01:54:45;;;;;;;13.88;8.48;;;;;;;-1.37;67.05;102315.44;4937574;28;20036;-78
2022/03/08 01:57:12;;;;;;;14.82;8.48;;;;;;;-1.35;67.29;102324.75;4937614;29;20028;-77
2022/03/08 01:59:38;;;;;;;14.35;8.60;;;;;;;-1.60;67.23;102283.09;4937521;29;20031;-78
2022/03/08 02:02:04;;;;;;;12.50;8.60;;;;;;;-1.28;67.77;102338.31;4937358;29;20462;-77
2022/03/08 02:04:30;;;;;;;16.75;8.55;;;;;;;-1.31;67.91;102341.66;4937256;29;20090;-80
2022/03/08 02:06:55;;;;;;;13.43;8.30;;;;;;;-1.49;68.03;102319.53;4937216;28;20043;-77
2022/03/08 02:09:21;;;;;;;14.70;9.55;;;;;;;-1.51;67.83;102323.72;4937362;29;20126;-79
2022/03/08 02:11:47;;;;;;;13.90;8.88;;;;;;;-1.45;67.87;102331.41;4937317;28;20047;-78
2022/03/08 02:14:15;;;;;;;13.60;8.98;;;;;;;-1.51;68.62;102325.41;4937254;29;20393;-80
2022/03/08 02:16:40;;;;;;;15.38;8.60;;;;;;;-1.58;68.13;102327.03;4937089;28;20036;-77
2022/03/08 02:19:09;;;;;;;13.52;9.13;;;;;;;-1.57;68.74;102327.91;4937354;28;20034;-76
2022/03/08 02:21:35;;;;;;;14.50;8.75;;;;;;;-1.83;68.31;102284.53;4937216;29;20370;-78
2022/03/08 02:24:00;;;;;;;13.63;8.80;;;;;;;-1.61;68.43;102321.09;4937241;29;20035;-78
2022/03/08 02:26:26;;;;;;;15.25;9.27;;;;;;;-1.64;68.67;102316.84;4967837;28;20130;-79
2022/03/08 02:28:52;;;;;;;14.48;8.80;;;;;;;-1.67;68.89;102308.34;4937019;29;20118;-77
2022/03/08 02:31:18;;;;;;;15.68;9.15;;;;;;;-1.70;68.86;102305.78;4936880;28;20040;-77
2022/03/08 02:33:44;;;;;;;14.90;9.15;;;;;;;-1.80;68.54;102287.09;4937008;29;20050;-77
2022/03/08 02:36:09;;;;;;;14.75;9.27;;;;;;;-1.69;69.36;102303.25;4966999;28;20043;-80
2022/03/08 02:38:35;;;;;;;15.35;9.77;;;;;;;-1.89;68.77;102270.13;4936946;28;20034;-78
2022/03/08 02:41:00;;;;;;;13.57;8.50;;;;;;;-1.90;68.89;102263.34;4967592;28;20046;-78
2022/03/08 02:43:25;;;;;;;14.40;8.27;;;;;;;-1.68;68.97;102293.97;4936720;29;20114;-77
2022/03/08 02:45:51;;;;;;;14.20;8.63;;;;;;;-1.70;68.78;102293.97;4936373;28;20056;-77
2022/03/08 02:48:16;;;;;;;13.52;8.55;;;;;;;-1.74;68.73;102282.97;4936655;29;20040;-76
2022/03/08 02:50:41;;;;;;;15.85;9.05;;;;;;;-1.89;68.70;102261.69;4936445;28;20086;-77
2022/03/08 02:53:07;;;;;;;12.52;8.20;;;;;;;-1.91;69.06;102261.66;4936717;29;20032;-77
2022/03/08 02:55:34;;;;;;;13.63;8.55;;;;;;;-1.86;68.93;102275.25;4936602;28;20086;-80
2022/03/08 02:58:01;;;;;;;13.35;8.82;;;;;;;-1.92;68.85;102265.03;4936277;28;20485;-80
2022/03/08 03:00:28;;;;;;;13.88;8.98;;;;;;;-1.79;69.11;102283.72;4936386;29;20027;-77
2022/03/08 03:02:55;;;;;;;15.63;9.13;;;;;;;-1.92;69.03;102251.53;4935864;28;20066;-78
2022/03/08 03:05:21;;;;;;;14.55;8.95;;;;;;;-1.81;69.17;102272.75;4935684;29;20401;-78
2022/03/08 03:07:46;;;;;;;15.10;10.05;;;;;;;-1.84;69.27;102267.66;4936320;28;20016;-81
2022/03/08 03:10:15;;;;;;;15.80;9.02;;;;;;;-1.88;69.35;102263.38;4936323;28;20028;-81
2022/03/08 03:12:41;;;;;;;14.48;9.32;;;;;;;-1.85;69.76;102268.50;4936265;29;20488;-78
2022/03/08 03:15:09;;;;;;;14.07;9.35;;;;;;;-1.95;69.70;102256.56;4936113;29;20028;-81
2022/03/08 03:17:35;;;;;;;15.85;9.88;;;;;;;-1.91;69.80;102254.06;4935921;28;20031;-77
2022/03/08 03:20:01;;;;;;;17.52;10.15;;;;;;;-1.89;69.47;102241.41;4936152;28;20019;-80
2022/03/08 03:22:26;;;;;;;16.02;9.55;;;;;;;-2.02;70.14;102218.50;4936057;28;20035;-77
2022/03/08 03:24:51;;;;;;;17.48;9.23;;;;;;;-1.97;70.00;102216.00;4935906;28;20028;-79
2022/03/08 03:27:17;;;;;;;15.60;9.60;;;;;;;-2.04;69.90;102204.16;4935886;28;20035;-79
2022/03/08 03:29:42;;;;;;;17.65;9.60;;;;;;;-1.84;69.88;102244.88;4935762;29;20038;-79
2022/03/08 03:32:07;;;;;;;14.00;8.68;;;;;;;-1.95;70.02;102228.72;4935683;29;20032;-80
2022/03/08 03:34:33;;;;;;;14.73;9.20;;;;;;;-2.03;69.57;102213.44;4935698;29;20099;-77
2022/03/08 03:36:58;;;;;;;15.63;9.95;;;;;;;-1.87;69.57;102245.69;4935547;29;20031;-78
2022/03/08 03:39:24;;;;;;;15.25;10.18;;;;;;;-1.86;69.58;102237.25;4935872;28;20024;-81
2022/03/08 03:41:49;;;;;;;15.32;9.65;;;;;;;-1.88;70.30;102243.13;4935641;29;20438;-80
2022/03/08 03:44:15;;;;;;;15.10;9.65;;;;;;;-1.92;70.65;102247.31;4935484;28;20541;-81
2022/03/08 03:46:40;;;;;;;16.50;9.45;;;;;;;-1.97;70.35;102246.41;4935582;29;20397;-81
2022/03/08 03:49:06;;;;;;;15.98;9.40;;;;;;;-1.99;70.75;102252.28;4935632;29;20036;-80
2022/03/08 03:51:32;;;;;;;18.17;9.68;;;;;;;-2.11;70.35;102238.66;4965885;28;20036;-79
2022/03/08 03:53:57;;;;;;;17.05;9.30;;;;;;;-2.04;70.27;102245.50;4935449;28;20067;-83
2022/03/08 03:56:22;;;;;;;16.70;9.70;;;;;;;-2.40;70.39;102187.69;4935280;29;20039;-83
2022/03/08 03:58:48;;;;;;;15.10;9.65;;;;;;;-1.99;70.64;102254.81;4935463;29;20477;-83
2022/03/08 04:01:14;;;;;;;14.43;9.75;;;;;;;-2.28;70.50;102209.75;4950370;28;20032;-79
2022/03/08 04:03:39;;;;;;;15.65;9.38;;;;;;;-2.05;70.82;102251.38;4935417;29;20028;-79
2022/03/08 04:06:05;;;;;;;14.77;9.40;;;;;;;-2.03;70.70;102253.94;4935179;29;20031;-84
2022/03/08 04:08:31;;;;;;;15.25;9.85;;;;;;;-2.04;70.81;102258.16;4935319;29;20035;-78
2022/03/08 04:10:56;;;;;;;14.32;8.68;;;;;;;-2.03;70.52;102249.72;4935424;29;20027;-79
2022/03/08 04:13:21;;;;;;;17.05;9.70;;;;;;;-2.01;70.60;102244.66;4965935;28;20043;-84
2022/03/08 04:15:50;;;;;;;15.48;9.55;;;;;;;-2.10;70.46;102220.09;4935073;29;20181;-79
2022/03/08 04:18:15;;;;;;;13.40;9.05;;;;;;;-2.20;70.27;102200.59;4935081;28;20512;-78
2022/03/08 04:20:41;;;;;;;16.02;9.68;;;;;;;-2.12;70.19;102211.66;4935795;28;20052;-78
2022/03/08 04:23:06;;;;;;;15.25;9.07;;;;;;;-2.25;70.18;102191.25;4935275;29;20114;-77
2022/03/08 04:25:31;;;;;;;14.68;9.38;;;;;;;-2.11;70.56;102202.38;4935289;29;20031;-80
2022/03/08 04:27:57;;;;;;;13.90;9.38;;;;;;;-1.89;70.45;102236.34;4935036;29;20480;-82
2022/03/08 04:30:22;;;;;;;14.68;9.05;;;;;;;-1.86;70.10;102236.41;4935042;29;20028;-84
2022/03/08 04:32:50;;;;;;;14.80;9.20;;;;;;;-1.87;70.23;102237.22;4935204;29;20102;-81
2022/03/08 04:35:16;;;;;;;16.00;9.77;;;;;;;-2.11;70.40;102197.31;4934862;29;20023;-78
2022/03/08 04:37:41;;;;;;;15.70;9.90;;;;;;;-1.88;70.18;102233.00;4930183;23;20063;-82
2022/03/08 04:40:08;;;;;;;15.57;9.80;;;;;;;-1.90;70.05;102237.19;4916140;29;20032;-79
2022/03/08 04:42:33;;;;;;;16.67;9.95;;;;;;;-1.99;70.15;102219.38;4916080;29;20111;-79
2022/03/08 04:44:59;;;;;;;14.63;9.90;;;;;;;-2.02;70.57;102210.06;4916082;29;20554;-78
2022/03/08 04:47:24;;;;;;;16.58;9.48;;;;;;;-1.97;70.50;102225.28;4916049;29;20500;-77
2022/03/08 04:49:49;;;;;;;15.88;10.00;;;;;;;-1.92;69.97;102233.81;4930368;29;20482;-80
2022/03/08 04:52:15;;;;;;;16.77;9.98;;;;;;;-2.07;70.38;102204.09;4916077;29;20068;-79
2022/03/08 04:54:40;;;;;;;13.88;9.10;;;;;;;-1.88;70.35;102233.00;4916011;29;20032;-81
2022/03/08 04:57:06;;;;;;;16.23;9.75;;;;;;;-1.94;70.02;102226.19;4915701;29;20123;-83
2022/03/08 04:59:31;;;;;;;14.57;9.63;;;;;;;-2.03;70.41;102210.91;4916043;29;20087;-78
2022/03/08 05:01:57;;;;;;;15.52;9.73;;;;;;;-2.03;70.19;102208.38;4915907;29;20040;-79
2022/03/08 05:04:22;;;;;;;13.85;9.35;;;;;;;-1.86;70.23;102227.13;4930139;29;20025;-79
2022/03/08 05:06:48;;;;;;;15.55;9.73;;;;;;;-1.89;69.74;102222.03;4915494;29;20191;-78
2022/03/08 05:09:13;;;;;;;18.10;10.70;;;;;;;-1.84;69.99;102227.16;4915859;29;20047;-79
2022/03/08 05:11:39;;;;;;;15.13;10.13;;;;;;;-2.08;69.95;102188.06;4915900;29;20033;-83
2022/03/08 05:14:05;;;;;;;16.33;9.38;;;;;;;-1.85;70.24;102231.38;4915753;29;20390;-81
2022/03/08 05:16:30;;;;;;;16.73;10.10;;;;;;;-1.88;70.21;102220.34;4915765;29;20028;-81
2022/03/08 05:18:55;;;;;;;14.60;9.73;;;;;;;-1.85;70.13;102226.31;4915854;29;20065;-77
2022/03/08 05:21:21;;;;;;;13.60;9.73;;;;;;;-1.82;70.41;102228.84;4915455;29;20025;-84
2022/03/08 05:23:46;;;;;;;15.57;10.15;;;;;;;-1.94;70.19;102197.50;4915536;29;20039;-77
2022/03/08 05:26:11;;;;;;;16.27;10.00;;;;;;;-1.85;69.95;102213.63;4915810;29;20039;-80
2022/03/08 05:28:36;;;;;;;15.60;10.27;;;;;;;-1.86;70.15;102218.69;4918552;29;20028;-80
2022/03/08 05:31:02;;;;;;;17.42;10.07;;;;;;;-2.09;70.15;102181.31;4918876;29;20402;-77
2022/03/08 05:33:27;;;;;;;17.80;10.43;;;;;;;-1.82;69.99;102212.81;4933723;29;20477;-76
2022/03/08 05:35:53;;;;;;;17.08;10.10;;;;;;;-1.89;69.85;102200.91;4919027;29;20035;-79
2022/03/08 05:38:18;;;;;;;18.08;9.35;;;;;;;-1.90;69.90;102200.06;4933592;29;20107;-80
2022/03/08 05:40:44;;;;;;;15.13;10.10;;;;;;;-1.85;69.88;102207.72;4938219;29;20501;-77
2022/03/08 05:43:10;;;;;;;16.08;9.45;;;;;;;-2.08;70.35;102165.28;4937977;29;20489;-78
2022/03/08 05:45:35;;;;;;;16.60;10.43;;;;;;;-1.81;70.02;102214.50;4952637;29;20051;-79
2022/03/08 05:48:00;;;;;;;18.85;10.70;;;;;;;-2.02;70.01;102189.81;4937788;29;20103;-79
2022/03/08 05:50:26;;;;;;;17.83;10.27;;;;;;;-1.87;70.59;102206.84;4937830;29;20031;-77
2022/03/08 05:52:51;;;;;;;18.20;11.00;;;;;;;-1.90;70.65;102211.88;4937329;29;20031;-80
2022/03/08 05:55:17;;;;;;;16.05;9.98;;;;;;;-1.92;70.65;102214.41;4937476;29;20042;-78
2022/03/08 05:57:42;;;;;;;18.75;11.10;;;;;;;-1.94;70.71;102213.53;4937638;29;20103;-78
2022/03/08 06:00:09;;;;;;;16.92;10.68;;;;;;;-2.03;71.02;102196.56;4937552;29;20386;-82
2022/03/08 06:02:35;;;;;;;17.33;11.15;;;;;;;-1.93;71.10;102207.63;4937722;29;20039;-81
2022/03/08 06:05:00;;;;;;;17.67;10.32;;;;;;;-2.19;70.94;102171.06;4937254;29;20031;-80
2022/03/08 06:07:25;;;;;;;19.15;11.18;;;;;;;-1.95;71.57;102208.47;4937178;29;20031;-78
2022/03/08 06:09:51;;;;;;;19.23;10.93;;;;;;;-1.99;71.29;102207.56;4937433;29;20070;-79
2022/03/08 06:12:16;;;;;;;17.77;11.20;;;;;;;-2.02;71.70;102205.84;4937182;29;20028;-77
2022/03/08 06:14:42;;;;;;;18.73;11.65;;;;;;;-2.02;71.73;102207.53;4937592;29;20035;-77
2022/03/08 06:17:07;;;;;;;19.48;11.60;;;;;;;-1.98;71.45;102205.88;4937233;29;20031;-80
2022/03/08 06:19:33;;;;;;;18.10;11.15;;;;;;;-2.15;71.36;102185.47;4937117;29;20077;-80
2022/03/08 06:22:00;;;;;;;18.17;10.73;;;;;;;-1.95;71.35;102205.94;4936952;29;20027;-76
2022/03/08 06:24:25;;;;;;;20.23;11.05;;;;;;;-1.88;71.50;102212.75;4936912;29;20028;-77
2022/03/08 06:26:50;;;;;;;20.67;11.65;;;;;;;-1.85;71.34;102212.78;4937127;29;20042;-77
2022/03/08 06:29:16;;;;;;;21.42;11.98;;;;;;;-1.85;71.04;102202.66;4936813;29;20090;-78
2022/03/08 06:31:41;;;;;;;16.95;10.57;;;;;;;-2.00;70.86;102175.50;4951848;29;20039;-80
2022/03/08 06:34:07;;;;;;;18.25;11.13;;;;;;;-1.99;70.78;102171.28;4936709;29;20028;-78
2022/03/08 06:36:34;;;;;;;17.35;10.95;;;;;;;-1.70;70.80;102218.00;4936931;29;20032;-78
2022/03/08 06:38:59;;;;;;;17.13;10.52;;;;;;;-1.67;70.96;102218.03;4936408;29;20051;-78
2022/03/08 06:41:26;;;;;;;18.88;11.52;;;;;;;-1.77;70.75;102195.97;4951133;29;20040;-78
2022/03/08 06:43:51;;;;;;;16.80;10.80;;;;;;;-1.55;70.40;102212.25;4936774;29;20054;-78
2022/03/08 06:46:17;;;;;;;15.85;11.07;;;;;;;-1.52;70.19;102210.56;4936693;29;20461;-78
2022/03/08 06:48:42;;;;;;;19.00;11.00;;;;;;;-1.50;70.08;102205.50;4936492;29;20023;-80
2022/03/08 06:51:07;;;;;;;18.08;10.90;;;;;;;-1.51;69.76;102189.47;4936619;29;20032;-81
2022/03/08 06:53:33;;;;;;;19.48;10.70;;;;;;;-1.31;69.09;102211.59;4936308;29;20031;-77
2022/03/08 06:55:58;;;;;;;18.33;10.98;;;;;;;-1.36;69.39;102201.44;4936203;29;20039;-80
2022/03/08 06:58:23;;;;;;;18.60;10.82;;;;;;;-1.18;69.11;102215.91;4936725;29;20040;-77
2022/03/08 07:00:49;;;;;;;17.58;10.75;;;;;;;-1.28;69.16;102194.75;4936602;29;20031;-78
2022/03/08 07:03:14;;;;;;;16.45;10.40;;;;;;;-1.10;69.01;102216.81;4936363;29;20032;-79
2022/03/08 07:05:40;;;;;;;18.67;12.02;;;;;;;-1.03;68.72;102216.03;4936349;29;20059;-77
2022/03/08 07:08:06;;;;;;;20.38;11.88;;;;;;;-0.97;68.52;102210.16;4936119;29;20036;-78
2022/03/08 07:10:32;;;;;;;15.13;10.98;;;;;;;-1.01;67.68;102190.69;4936053;29;20110;-76
2022/03/08 07:12:57;;;;;;;16.55;10.60;;;;;;;-0.83;67.76;102206.03;4936027;29;20480;-78
2022/03/08 07:15:23;;;;;;;16.52;11.00;;;;;;;-0.74;67.37;102210.31;4936056;29;20036;-75
2022/03/08 07:17:48;;;;;;;18.55;11.23;;;;;;;-0.88;67.35;102183.19;4936207;29;20058;-75
2022/03/08 07:20:15;;;;;;;17.90;10.75;;;;;;;-0.94;67.20;102172.16;4936184;29;20080;-78
2022/03/08 07:22:40;;;;;;;17.70;11.20;;;;;;;-0.69;66.76;102183.25;4950601;28;20115;-80
2022/03/08 07:25:07;;;;;;;17.88;10.57;;;;;;;-0.46;66.28;102217.22;4935984;29;20457;-78
2022/03/08 07:27:32;;;;;;;18.25;11.02;;;;;;;-0.39;66.29;102220.66;4935817;29;20105;-76
2022/03/08 07:29:58;;;;;;;16.90;10.77;;;;;;;-0.30;66.06;102223.19;4935778;29;20428;-77
2022/03/08 07:32:23;;;;;;;16.60;10.50;;;;;;;-0.45;64.97;102183.41;4935864;29;20027;-75
2022/03/08 07:34:48;;;;;;;16.63;10.65;;;;;;;-0.30;65.37;102206.28;4935683;29;20035;-78
2022/03/08 07:37:13;;;;;;;15.60;10.63;;;;;;;-0.13;64.97;102208.03;4935728;29;20035;-74
2022/03/08 07:39:39;;;;;;;14.82;10.40;;;;;;;-0.01;64.81;102211.47;4935573;29;20035;-76
2022/03/08 07:42:05;;;;;;;17.73;10.73;;;;;;;0.07;64.54;102208.09;4935537;29;20028;-74
2022/03/08 07:44:30;;;;;;;17.70;11.20;;;;;;;0.15;64.47;102217.44;4935420;28;20040;-76
2022/03/08 07:46:56;;;;;;;17.05;10.55;;;;;;;-0.15;63.94;102154.72;4935839;29;20063;-75
2022/03/08 07:49:22;;;;;;;17.77;11.20;;;;;;;0.31;63.87;102204.78;4935359;29;20066;-76
2022/03/08 07:51:48;;;;;;;16.65;10.90;;;;;;;0.37;63.67;102200.53;4935482;29;20063;-75
2022/03/08 07:54:15;;;;;;;17.42;10.85;;;;;;;0.23;63.35;102156.50;4935541;29;20019;-76
2022/03/08 07:56:41;;;;;;;15.45;10.23;;;;;;;0.33;62.82;102165.81;4935482;29;20110;-77
2022/03/08 07:59:06;;;;;;;16.67;11.68;;;;;;;0.62;62.82;102203.09;4935244;29;20031;-79
2022/03/08 08:01:31;;;;;;;17.23;11.55;;;;;;;0.31;62.72;102146.34;4950169;29;20091;-78
2022/03/08 08:03:59;;;;;;;16.63;10.90;;;;;;;0.42;62.35;102149.72;4935335;29;20034;-79
2022/03/08 08:06:25;;;;;;;17.38;10.90;;;;;;;0.81;62.10;102214.97;4935396;29;20023;-77
2022/03/08 08:08:50;;;;;;;16.23;10.40;;;;;;;0.44;61.65;102145.50;4935272;29;20385;-78
2022/03/08 08:11:15;;;;;;;16.42;10.15;;;;;;;0.90;61.73;102209.88;4935300;29;20135;-78
2022/03/08 08:13:41;;;;;;;17.15;10.80;;;;;;;0.78;60.75;102175.13;4935173;29;20028;-79
2022/03/08 08:16:06;;;;;;;15.10;10.75;;;;;;;0.86;61.35;102185.28;4935066;29;20389;-83
2022/03/08 08:18:47;;;;;;;15.98;10.90;;;;;;;0.20;61.91;102078.59;4935416;29;20043;-78
2022/03/08 08:21:22;;;;;;;16.55;10.23;;;;;;;0.35;61.51;102087.03;4935363;29;20465;-81
2022/03/08 08:23:57;;;;;;;17.92;10.80;;;;;;;0.02;61.45;102015.09;4934134;29;20035;-76
2022/03/08 08:26:38;;;;;;;17.00;11.00;;;;;;;0.48;61.01;102083.63;4934881;29;20039;-78
2022/03/08 08:30:04;;;;;;;15.05;11.02;;;;;;;1.47;61.32;102227.56;4935227;29;20024;-76
2022/03/08 08:32:30;;;;;;;17.30;10.55;;;;;;;0.61;61.18;102069.25;4934993;29;20063;-77
2022/03/08 08:34:55;;;;;;;15.57;10.43;;;;;;;1.65;60.94;102228.34;4935416;29;20131;-75
2022/03/08 08:37:39;;;;;;;15.57;10.75;;;;;;;0.72;60.83;102060.72;4934982;29;20036;-77
2022/03/08 08:40:08;;;;;;;17.33;10.90;;;;;;;1.00;58.40;102086.94;4934728;29;20023;-79
2022/03/08 08:42:33;;;;;;;15.38;9.82;;;;;;;1.89;59.05;102229.97;4934913;29;20019;-77
2022/03/08 08:45:02;;;;;;;20.40;10.05;;;;;;;1.97;59.35;102219.75;4934958;29;20032;-75
2022/03/08 08:47:30;;;;;;;13.98;10.32;;;;;;;2.03;58.06;102226.50;4935107;29;20028;-75
2022/03/08 08:49:55;;;;;;;16.05;10.30;;;;;;;2.14;57.79;102214.53;4935202;29;20111;-74
2022/03/08 08:52:20;;;;;;;17.48;10.48;;;;;;;2.21;58.04;102224.69;4935215;29;20091;-75
2022/03/08 08:54:47;;;;;;;15.13;10.18;;;;;;;2.21;57.03;102203.47;4934798;29;20028;-77
2022/03/08 08:57:13;;;;;;;14.52;10.52;;;;;;;2.34;56.30;102212.72;4934830;29;20078;-78
2022/03/08 08:59:38;;;;;;;15.20;9.70;;;;;;;2.39;57.13;102211.00;4935164;29;20035;-79
2022/03/08 09:02:07;;;;;;;15.20;10.23;;;;;;;2.18;56.75;102168.66;4935659;29;20035;-79
2022/03/08 09:04:47;;;;;;;13.23;9.48;;;;;;;2.11;56.50;102140.69;4938664;29;20038;-82
2022/03/08 09:07:13;;;;;;;14.15;8.82;;;;;;;2.04;54.79;102109.28;4953229;28;20047;-80
2022/03/08 09:09:50;;;;;;;14.18;9.75;;;;;;;2.47;54.75;102154.84;4952961;28;20031;-79
2022/03/08 09:12:16;;;;;;;12.85;9.57;;;;;;;2.15;54.18;102101.56;4938394;29;20035;-81
2022/03/08 09:14:54;;;;;;;14.75;9.88;;;;;;;1.56;54.87;101984.00;4938404;29;20397;-80
2022/03/08 09:17:23;;;;;;;12.32;8.95;;;;;;;2.29;53.63;102090.41;4955172;28;20551;-81
2022/03/08 09:19:48;;;;;;;14.20;8.82;;;;;;;2.45;53.20;102098.75;4955803;28;20043;-82
2022/03/08 09:22:15;;;;;;;16.70;9.55;;;;;;;2.10;53.17;102022.63;4955430;28;20127;-79
2022/03/08 09:24:41;;;;;;;14.35;9.35;;;;;;;2.33;52.70;102047.88;4955420;28;20038;-78
2022/03/08 09:27:09;;;;;;;14.27;8.98;;;;;;;3.14;52.46;102159.28;4955278;28;20043;-80
2022/03/08 09:29:37;;;;;;;15.52;8.75;;;;;;;3.37;51.98;102185.44;4955397;28;20038;-83
2022/03/08 09:32:21;;;;;;;18.23;9.05;;;;;;;3.39;52.08;102170.09;4955377;28;20035;-84
2022/03/08 09:34:55;;;;;;;15.50;8.75;;;;;;;2.02;52.67;101930.13;4955352;28;20046;-78
2022/03/08 09:37:26;;;;;;;13.75;8.40;;;;;;;3.31;51.99;102136.97;4954763;28;20087;-80
2022/03/08 09:39:57;;;;;;;13.23;8.82;;;;;;;3.59;52.73;102167.28;4954740;28;20039;-81
2022/03/08 09:42:23;;;;;;;13.20;9.32;;;;;;;3.68;52.12;102162.06;4955070;28;20031;-80
2022/03/08 09:44:58;;;;;;;12.35;8.98;;;;;;;2.53;52.14;101966.94;4955052;29;20122;-79
2022/03/08 09:47:31;;;;;;;15.35;9.35;;;;;;;3.77;52.17;102161.94;4951104;28;20488;-80
2022/03/08 09:49:56;;;;;;;15.23;9.98;;;;;;;2.99;51.19;102011.47;4933370;29;20092;-80
2022/03/08 09:52:21;;;;;;;15.43;9.50;;;;;;;3.22;51.71;102022.22;4918742;29;20474;-79
2022/03/08 09:54:53;;;;;;;16.75;9.60;;;;;;;3.41;51.15;102044.09;4918796;29;20063;-80
2022/03/08 09:57:22;;;;;;;;;;;;;;;4.04;51.24;102145.41;4919094;29;20032;-79
2022/03/08 09:59:47;;;;;;;14.38;9.80;;;;;;;3.66;49.09;102067.59;4917803;29;19938;-79
2022/03/08 10:02:48;;;;;;;14.27;8.65;;;;;;;4.05;49.99;102110.47;4933938;29;20028;-81
2022/03/08 10:05:22;;;;;;;15.88;9.13;;;;;;;4.30;51.01;102150.09;4917366;29;20072;-80
2022/03/08 10:11:39;;;;;;;14.30;9.20;;;;;;;3.12;49.15;101928.78;4897394;29;20032;-81
2022/03/08 10:14:05;;;;;;;13.48;8.52;;;;;;;4.50;47.66;102129.31;4897144;29;20032;-80
2022/03/08 10:16:41;;;;;;;14.60;8.35;;;;;;;4.57;46.63;102125.78;4897478;29;20029;-80
2022/03/08 10:19:26;;;;;;;15.38;8.98;;;;;;;3.78;47.53;102001.84;4897126;29;20168;-78
2022/03/08 10:21:57;;;;;;;12.27;8.32;;;;;;;3.42;46.68;101922.38;4897264;29;20048;-83
2022/03/08 10:24:29;;;;;;;14.93;8.43;;;;;;;4.65;46.33;102113.72;4897540;29;20071;-81
2022/03/08 10:27:06;;;;;;;16.27;8.65;;;;;;;4.82;46.46;102121.94;4897269;29;20092;-81
2022/03/08 10:29:37;;;;;;;13.23;7.82;;;;;;;4.87;45.57;102127.78;4897341;29;20029;-80
2022/03/08 10:32:17;;;;;;;12.43;7.53;;;;;;;4.97;45.82;102122.50;4897050;29;20501;-80
2022/03/08 10:34:45;;;;;;;11.13;7.70;;;;;;;4.61;44.64;102045.53;4897206;29;20044;-81
2022/03/08 10:37:17;;;;;;;12.60;7.15;;;;;;;5.08;44.73;102116.28;4897450;29;20127;-82
2022/03/08 10:39:59;;;;;;;15.05;7.32;;;;;;;4.93;44.99;102067.97;4915912;29;20055;-79
2022/03/08 10:42:27;;;;;;;13.30;7.38;;;;;;;4.89;43.85;102050.97;4915707;29;20040;-81
2022/03/08 10:45:08;;;;;;;10.60;7.05;;;;;;;5.05;44.89;102065.16;4915838;29;20092;-80
2022/03/08 10:47:51;;;;;;;12.95;7.28;;;;;;;5.35;43.66;102103.81;4908647;28;20036;-81
2022/03/08 10:50:19;;;;;;;11.77;6.57;;;;;;;5.09;42.73;102053.13;4917965;29;20024;-82
2022/03/08 10:52:49;;;;;;;12.50;7.05;;;;;;;5.42;42.35;102107.94;4917817;29;20071;-79
2022/03/08 10:55:23;;;;;;;15.23;7.60;;;;;;;5.33;41.90;102070.56;4917631;29;20032;-83
2022/03/08 10:57:56;;;;;;;14.60;7.20;;;;;;;5.49;41.60;102076.19;4917695;29;20032;-85
2022/03/08 11:00:27;;;;;;;11.70;7.40;;;;;;;5.65;42.01;102110.00;4932374;29;20201;-80
2022/03/08 11:02:55;;;;;;;13.63;7.68;;;;;;;5.72;42.54;102098.75;4917583;29;20032;-81
2022/03/08 11:05:23;;;;;;;10.73;7.55;;;;;;;5.41;42.30;102042.22;4917632;29;20056;-81
2022/03/08 11:07:50;;;;;;;11.27;7.22;;;;;;;5.74;41.45;102102.13;4917480;29;20496;-82
2022/03/08 11:10:21;;;;;;;11.82;7.60;;;;;;;5.47;41.65;102044.63;4917395;29;20032;-81
2022/03/08 11:13:06;;;;;;;11.48;7.72;;;;;;;5.11;42.68;101988.25;4917531;29;20054;-83
2022/03/08 11:15:40;;;;;;;11.15;7.20;;;;;;;5.81;42.05;102090.03;4931687;29;20032;-83
2022/03/08 11:18:15;;;;;;;12.73;7.15;;;;;;;4.55;42.48;101877.69;4917214;29;20032;-81
2022/03/08 11:21:00;;;;;;;14.23;7.75;;;;;;;4.74;42.99;101903.72;4917086;29;20035;-82